VIR264 EGCC-MMMX
Flight info
| Callsign | VIR264 |
|---|---|
| Flight time | N/A |
| Altitude | 34000 |
| Route | ASMIM L975 WAL L10 PENIL M144 BAGSO DCT DOGAL/M085F350 NATD NEEKO/N0494F360 N622E TAFFY DCT CABCI DCT CFB DCT PSB Q71 PSYKO/N0482F380 Q71 GEFFS DCT HVQ DCT VLKNN DCT KEENY DCT TBD M345 AXEXO UM345 PAZ UT154 ENAGA ENAGA3A |
| Aircraft | A35K/H-SDE2E3GHIJ3J4J5LM1ORWXY/LB1D1 |
Departure
| Time | 2026-05-05 10:17 |
|---|---|
| Airport | Manchester Airport (EGCC) |
Arrival
| Time | N/A |
|---|---|
| Airport | Mexico City Benito Juárez International Airport (MMMX) |
| Time | Latitude | Longitude | Altitude | Speed | Heading |
|---|---|---|---|---|---|
| 2026-05-05 09:55 | 53.36574 | -2.27969 | 261 ft | 0 kts | 45° |
| 2026-05-05 10:04 | 53.36573 | -2.27971 | 261 ft | 2 kts | 45° |
| 2026-05-05 10:04 | 53.36554 | -2.28002 | 262 ft | 4 kts | 45° |
| 2026-05-05 10:05 | 53.36539 | -2.28027 | 267 ft | 4 kts | 49° |
| 2026-05-05 10:05 | 53.36530 | -2.28062 | 265 ft | 4 kts | 111° |
| 2026-05-05 10:05 | 53.36537 | -2.28081 | 267 ft | 0 kts | 135° |
| 2026-05-05 10:05 | 53.36521 | -2.28054 | 265 ft | 2 kts | 135° |
| 2026-05-05 10:06 | 53.36520 | -2.28053 | 264 ft | 0 kts | 135° |
| 2026-05-05 10:10 | 53.36520 | -2.28052 | 261 ft | 0 kts | 135° |
| 2026-05-05 10:10 | 53.36497 | -2.28022 | 261 ft | 7 kts | 144° |
| 2026-05-05 10:10 | 53.36454 | -2.27968 | 261 ft | 8 kts | 140° |
| 2026-05-05 10:10 | 53.36402 | -2.27929 | 261 ft | 8 kts | 180° |
| 2026-05-05 10:11 | 53.36359 | -2.27984 | 261 ft | 8 kts | 228° |
| 2026-05-05 10:11 | 53.36311 | -2.28049 | 261 ft | 10 kts | 207° |
| 2026-05-05 10:11 | 53.36245 | -2.28084 | 261 ft | 10 kts | 204° |
| 2026-05-05 10:11 | 53.36188 | -2.28154 | 261 ft | 10 kts | 199° |
| 2026-05-05 10:12 | 53.36133 | -2.28108 | 261 ft | 10 kts | 137° |
| 2026-05-05 10:12 | 53.36081 | -2.28030 | 261 ft | 10 kts | 138° |
| 2026-05-05 10:12 | 53.36023 | -2.27947 | 261 ft | 11 kts | 139° |
| 2026-05-05 10:12 | 53.35958 | -2.27865 | 261 ft | 12 kts | 154° |
| 2026-05-05 10:13 | 53.35874 | -2.27852 | 260 ft | 13 kts | 186° |
| 2026-05-05 10:13 | 53.35764 | -2.27872 | 254 ft | 18 kts | 185° |
| 2026-05-05 10:13 | 53.35646 | -2.27895 | 247 ft | 13 kts | 197° |
| 2026-05-05 10:13 | 53.35570 | -2.28012 | 243 ft | 17 kts | 230° |
| 2026-05-05 10:14 | 53.35468 | -2.28142 | 240 ft | 19 kts | 201° |
| 2026-05-05 10:14 | 53.35345 | -2.28180 | 240 ft | 19 kts | 194° |
| 2026-05-05 10:14 | 53.35229 | -2.28306 | 238 ft | 20 kts | 229° |
| 2026-05-05 10:14 | 53.35153 | -2.28465 | 237 ft | 23 kts | 232° |
| 2026-05-05 10:15 | 53.35055 | -2.28669 | 239 ft | 22 kts | 229° |
| 2026-05-05 10:15 | 53.34945 | -2.28864 | 234 ft | 24 kts | 226° |
| 2026-05-05 10:15 | 53.34825 | -2.29078 | 224 ft | 27 kts | 227° |
| 2026-05-05 10:15 | 53.34709 | -2.29296 | 225 ft | 14 kts | 218° |
| 2026-05-05 10:16 | 53.34619 | -2.29343 | 223 ft | 13 kts | 179° |
| 2026-05-05 10:16 | 53.34544 | -2.29272 | 228 ft | 12 kts | 116° |
| 2026-05-05 10:16 | 53.34572 | -2.29159 | 227 ft | 12 kts | 52° |
| 2026-05-05 10:16 | 53.34650 | -2.28995 | 226 ft | 28 kts | 50° |
| 2026-05-05 10:17 | 53.34897 | -2.28483 | 237 ft | 85 kts | 51° |
| 2026-05-05 10:17 | 53.35376 | -2.27493 | 249 ft | 135 kts | 51° |
| 2026-05-05 10:17 | 53.36059 | -2.26076 | 314 ft | 172 kts | 50° |
| 2026-05-05 10:17 | 53.36786 | -2.24579 | 958 ft | 158 kts | 46° |
| 2026-05-05 10:18 | 53.37624 | -2.23456 | 1483 ft | 155 kts | 20° |
| 2026-05-05 10:18 | 53.38656 | -2.23487 | 1886 ft | 149 kts | 335° |
| 2026-05-05 10:18 | 53.39530 | -2.24517 | 2161 ft | 162 kts | 315° |
| 2026-05-05 10:18 | 53.40327 | -2.26004 | 2415 ft | 180 kts | 311° |
| 2026-05-05 10:19 | 53.41187 | -2.27654 | 2607 ft | 199 kts | 313° |
| 2026-05-05 10:19 | 53.42174 | -2.29468 | 2807 ft | 220 kts | 314° |
| 2026-05-05 10:19 | 53.43253 | -2.31410 | 3094 ft | 237 kts | 314° |
| 2026-05-05 10:19 | 53.44384 | -2.33505 | 3583 ft | 246 kts | 309° |
| 2026-05-05 10:20 | 53.45298 | -2.35979 | 4141 ft | 253 kts | 299° |
| 2026-05-05 10:20 | 53.46108 | -2.38637 | 4729 ft | 258 kts | 298° |
| 2026-05-05 10:20 | 53.46813 | -2.41456 | 5318 ft | 264 kts | 286° |
| 2026-05-05 10:20 | 53.46920 | -2.44501 | 5977 ft | 267 kts | 264° |
| 2026-05-05 10:21 | 53.46615 | -2.47589 | 6663 ft | 269 kts | 260° |
| 2026-05-05 10:21 | 53.46257 | -2.50653 | 7329 ft | 270 kts | 260° |
| 2026-05-05 10:21 | 53.45897 | -2.53761 | 8064 ft | 270 kts | 260° |
| 2026-05-05 10:21 | 53.45545 | -2.56876 | 8768 ft | 272 kts | 261° |
| 2026-05-05 10:22 | 53.45198 | -2.59981 | 9442 ft | 275 kts | 261° |
| 2026-05-05 10:22 | 53.44847 | -2.63123 | 10195 ft | 275 kts | 261° |
| 2026-05-05 10:22 | 53.44490 | -2.66361 | 10531 ft | 290 kts | 261° |
| 2026-05-05 10:22 | 53.44116 | -2.69811 | 10827 ft | 307 kts | 261° |
| 2026-05-05 10:23 | 53.43721 | -2.73418 | 11089 ft | 324 kts | 261° |